createdAt,value
2022-10-02T00:03:08.156Z,138.50
2022-10-02T00:08:08.324Z,185.20
2022-10-02T00:13:15.481Z,219.00
2022-10-02T00:18:05.820Z,244.80
2022-10-02T00:23:04.999Z,221.10
2022-10-02T00:28:04.222Z,468.60
2022-10-02T00:33:03.410Z,188.30
2022-10-02T00:38:05.713Z,222.70
2022-10-02T00:43:01.874Z,433.10
2022-10-02T00:48:02.049Z,178.50
2022-10-02T00:52:59.238Z,206.70
2022-10-02T00:57:59.465Z,210.50
2022-10-02T01:02:58.782Z,183.40
2022-10-02T01:07:58.120Z,171.80
2022-10-02T01:12:57.433Z,170.70
2022-10-02T01:17:56.743Z,153.80
2022-10-02T01:22:56.062Z,194.90
2022-10-02T01:27:55.432Z,166.20
2022-10-02T01:32:54.585Z,105.50
2022-10-02T01:37:55.727Z,110.00
2022-10-02T01:42:53.056Z,106.10
2022-10-02T01:47:53.361Z,122.10
2022-10-02T01:52:51.638Z,74.90
2022-10-02T01:57:51.900Z,70.40
2022-10-02T02:02:51.195Z,59.20
2022-10-02T02:07:49.503Z,58.50
2022-10-02T02:12:48.784Z,74.80
2022-10-02T02:17:48.106Z,124.90
2022-10-02T02:22:48.443Z,79.40
2022-10-02T02:27:47.785Z,69.70
2022-10-02T02:32:46.068Z,53.20
2022-10-02T02:37:46.410Z,68.10
2022-10-02T02:42:44.538Z,44.90
2022-10-02T02:47:43.841Z,43.60
2022-10-02T02:52:43.167Z,73.50
2022-10-02T02:57:42.501Z,75.30
2022-10-02T03:02:42.819Z,83.90
2022-10-02T03:07:41.140Z,56.50
2022-10-02T03:12:40.449Z,61.40
2022-10-02T03:17:39.889Z,61.90
2022-10-02T03:22:40.043Z,51.80
2022-10-02T03:27:38.359Z,46.20
2022-10-02T03:32:37.686Z,44.90
2022-10-02T03:37:38.997Z,35.50
2022-10-02T03:42:35.291Z,29.30
2022-10-02T03:47:37.610Z,18.00
2022-10-02T03:52:34.909Z,17.50
2022-10-02T03:57:34.228Z,27.40
2022-10-02T04:02:33.568Z,22.40
2022-10-02T04:07:32.713Z,19.00
2022-10-02T04:12:32.036Z,13.00
2022-10-02T04:17:32.418Z,11.30
2022-10-02T04:22:31.540Z,18.70
2022-10-02T04:27:29.952Z,13.90
2022-10-02T04:32:29.069Z,12.00
2022-10-02T04:37:28.424Z,12.80
2022-10-02T04:42:26.721Z,12.60
2022-10-02T04:47:26.869Z,10.00
2022-10-02T04:52:26.209Z,9.10
2022-10-02T04:57:25.361Z,12.10
2022-10-02T05:02:27.697Z,11.50
2022-10-02T05:07:23.778Z,16.80
2022-10-02T05:12:23.101Z,13.10
2022-10-02T05:17:22.220Z,8.10
2022-10-02T05:22:21.554Z,7.60
2022-10-02T05:27:20.882Z,7.60
2022-10-02T05:32:20.190Z,12.20
2022-10-02T05:37:20.480Z,10.90
2022-10-02T05:42:19.806Z,5.70
2022-10-02T05:47:18.105Z,6.90
2022-10-02T05:52:17.404Z,5.00
2022-10-02T05:57:18.696Z,5.60
2022-10-02T06:02:16.053Z,9.40
2022-10-02T06:07:16.179Z,5.00
2022-10-02T06:12:15.491Z,6.60
2022-10-02T06:17:16.818Z,8.50
2022-10-02T06:22:14.077Z,5.20
2022-10-02T06:27:12.372Z,4.30
2022-10-02T06:32:11.663Z,3.40
2022-10-02T06:37:10.964Z,2.80
2022-10-02T06:42:11.239Z,2.50
2022-10-02T06:47:11.520Z,3.10
2022-10-02T06:52:10.794Z,3.20
2022-10-02T06:57:08.140Z,5.20
2022-10-02T07:02:08.350Z,3.00
2022-10-02T07:07:06.444Z,4.00
2022-10-02T07:12:05.751Z,3.70
2022-10-02T07:17:06.045Z,3.10
2022-10-02T07:22:20.334Z,3.10
2022-10-02T07:27:04.497Z,4.80
2022-10-02T07:32:02.806Z,3.60
2022-10-02T07:37:03.110Z,2.60
2022-10-02T07:42:02.395Z,3.00
2022-10-02T07:47:00.717Z,3.60
2022-10-02T07:51:59.851Z,4.40
2022-10-02T07:56:59.147Z,4.40
2022-10-02T08:01:58.549Z,4.30
2022-10-02T08:06:58.663Z,3.90
2022-10-02T08:11:57.933Z,3.80
2022-10-02T08:16:56.372Z,3.10
2022-10-02T08:21:56.509Z,3.70
2022-10-02T08:26:55.613Z,3.40
2022-10-02T08:31:54.023Z,2.30
2022-10-02T08:36:53.196Z,3.50
2022-10-02T08:41:52.498Z,3.00
2022-10-02T08:46:51.797Z,2.90
2022-10-02T08:51:51.098Z,2.40
2022-10-02T08:56:50.401Z,3.40
2022-10-02T09:01:49.699Z,2.90
2022-10-02T09:06:49.002Z,3.00
2022-10-02T09:11:48.332Z,2.90
2022-10-02T09:16:47.659Z,2.40
2022-10-02T09:21:47.916Z,2.70
2022-10-02T09:26:47.214Z,3.00
2022-10-02T09:31:46.543Z,138.60
2022-10-02T09:36:44.661Z,94.60
2022-10-02T09:41:43.952Z,196.70
2022-10-02T09:46:43.237Z,150.20
2022-10-02T09:51:42.537Z,100.10
2022-10-02T09:56:41.875Z,62.00
2022-10-02T10:01:41.186Z,79.20
2022-10-02T10:06:41.507Z,51.90
2022-10-02T10:11:40.904Z,43.80
2022-10-02T10:16:39.028Z,76.00
2022-10-02T10:21:37.467Z,78.40
2022-10-02T10:26:37.475Z,50.90
2022-10-02T10:31:37.067Z,62.10
2022-10-02T10:36:36.117Z,26.40
2022-10-02T10:41:35.744Z,35.20
2022-10-02T10:46:34.677Z,45.30
2022-10-02T10:51:34.211Z,41.20
2022-10-02T10:56:33.281Z,25.10
2022-10-02T11:01:33.603Z,23.20
2022-10-02T11:06:32.751Z,28.80
2022-10-02T11:11:31.023Z,24.20
2022-10-02T11:16:31.344Z,21.60
2022-10-02T11:21:29.625Z,24.50
2022-10-02T11:26:29.866Z,17.80
2022-10-02T11:31:28.188Z,12.70
2022-10-02T11:36:28.456Z,18.70
2022-10-02T11:41:26.757Z,11.60
2022-10-02T11:46:26.018Z,12.10
2022-10-02T11:51:25.303Z,16.00
2022-10-02T11:56:23.600Z,12.20
2022-10-02T12:01:23.983Z,11.80
2022-10-02T12:06:22.133Z,10.00
2022-10-02T12:11:22.370Z,19.50
2022-10-02T12:16:21.517Z,7.90
2022-10-02T12:21:21.638Z,7.80
2022-10-02T12:26:19.920Z,9.10
2022-10-02T12:31:20.130Z,8.40
2022-10-02T12:36:19.321Z,7.60
2022-10-02T12:41:18.506Z,6.20
2022-10-02T12:46:16.723Z,6.00
2022-10-02T12:51:18.028Z,6.40
2022-10-02T12:56:15.180Z,5.20
2022-10-02T13:01:15.433Z,6.30
2022-10-02T13:06:13.596Z,4.90
2022-10-02T13:11:12.817Z,5.50
2022-10-02T13:16:12.040Z,5.20
2022-10-02T13:21:12.221Z,4.80
2022-10-02T13:26:11.397Z,4.60
2022-10-02T13:31:10.615Z,4.50
2022-10-02T13:36:08.797Z,9.00
2022-10-02T13:41:08.007Z,11.00
2022-10-02T13:46:07.289Z,12.80
2022-10-02T13:51:06.513Z,13.10
2022-10-02T13:56:05.710Z,5.70
2022-10-02T14:01:04.948Z,15.30
2022-10-02T14:06:04.126Z,14.50
2022-10-02T14:11:03.306Z,10.10
2022-10-02T14:16:02.573Z,101.20
2022-10-02T14:21:01.750Z,69.40
2022-10-02T14:26:00.994Z,129.90
2022-10-02T14:31:00.160Z,354.80
2022-10-02T14:36:00.331Z,277.60
2022-10-02T14:40:59.540Z,266.00
2022-10-02T14:45:57.769Z,407.60
2022-10-02T14:50:58.967Z,274.10
2022-10-02T14:55:56.127Z,241.10
2022-10-02T15:00:56.378Z,163.90
2022-10-02T15:05:56.597Z,168.70
2022-10-02T15:10:53.777Z,132.10
2022-10-02T15:15:55.044Z,110.20
2022-10-02T15:20:52.190Z,200.80
2022-10-02T15:25:51.393Z,79.70
2022-10-02T15:30:50.572Z,169.70
2022-10-02T15:35:50.752Z,61.80
2022-10-02T15:40:50.946Z,103.10
2022-10-02T15:45:49.230Z,90.90
2022-10-02T15:50:47.430Z,73.90
2022-10-02T15:55:47.650Z,76.20
2022-10-02T16:00:46.854Z,127.40
2022-10-02T16:05:45.016Z,42.00
2022-10-02T16:10:45.203Z,44.20
2022-10-02T16:15:42.399Z,35.00
2022-10-02T16:20:42.544Z,87.90
2022-10-02T16:25:43.709Z,78.20
2022-10-02T16:30:40.901Z,35.70
2022-10-02T16:35:43.687Z,24.80
2022-10-02T16:40:39.260Z,25.30
2022-10-02T16:45:39.553Z,62.20
2022-10-02T16:50:42.197Z,34.20
2022-10-02T16:55:38.016Z,25.00
2022-10-02T17:00:37.241Z,109.30
2022-10-02T17:05:37.438Z,173.40
2022-10-02T17:10:34.640Z,105.00
2022-10-02T17:15:35.816Z,224.90
2022-10-02T17:20:32.993Z,153.90
2022-10-02T17:25:32.206Z,144.30
2022-10-02T17:30:31.456Z,95.70
2022-10-02T17:35:30.637Z,67.50
2022-10-02T17:40:30.833Z,90.00
2022-10-02T17:45:29.093Z,192.10
2022-10-02T17:50:28.311Z,124.20
2022-10-02T17:55:28.576Z,199.40
2022-10-02T18:00:26.828Z,128.10
2022-10-02T18:05:28.035Z,259.10
2022-10-02T18:10:24.411Z,110.10
2022-10-02T18:15:26.149Z,92.00
2022-10-02T18:20:24.741Z,209.80
2022-10-02T18:25:22.929Z,83.00
2022-10-02T18:30:22.132Z,148.60
2022-10-02T18:35:21.301Z,71.40
2022-10-02T18:40:20.517Z,138.00
2022-10-02T18:45:20.976Z,53.50
2022-10-02T18:50:20.032Z,91.90
2022-10-02T18:55:18.476Z,73.60
2022-10-02T19:00:19.509Z,43.40
2022-10-02T19:05:15.708Z,72.40
2022-10-02T19:10:16.889Z,39.00
2022-10-02T19:15:16.057Z,32.20
2022-10-02T19:20:17.250Z,33.70
2022-10-02T19:25:12.405Z,24.20
2022-10-02T19:30:12.605Z,22.20
2022-10-02T19:35:12.929Z,16.40
2022-10-02T19:40:13.189Z,15.50
2022-10-02T19:45:10.255Z,40.20
2022-10-02T19:50:09.423Z,139.00
2022-10-02T19:55:12.310Z,222.50
2022-10-02T20:00:09.119Z,254.70
2022-10-02T20:05:09.185Z,140.00
2022-10-02T20:10:06.344Z,83.90
2022-10-02T20:15:06.504Z,54.50
2022-10-02T20:20:05.691Z,33.60
2022-10-02T20:25:03.863Z,126.60
2022-10-02T20:30:03.047Z,85.60
2022-10-02T20:35:02.239Z,78.80
2022-10-02T20:40:02.506Z,54.20
2022-10-02T20:45:01.725Z,58.90
2022-10-02T20:49:59.915Z,69.00
2022-10-02T20:55:00.102Z,57.30
2022-10-02T20:59:58.353Z,43.80
2022-10-02T21:04:59.567Z,56.90
2022-10-02T21:09:56.746Z,106.50
2022-10-02T21:14:56.924Z,162.00
2022-10-02T21:19:55.099Z,80.50
2022-10-02T21:24:54.409Z,53.70
2022-10-02T21:29:55.637Z,51.00
2022-10-02T21:34:53.788Z,101.70
2022-10-02T21:39:52.952Z,60.80
2022-10-02T21:44:51.164Z,50.00
2022-10-02T21:49:50.313Z,49.90
2022-10-02T21:54:49.498Z,99.10
2022-10-02T21:59:48.658Z,111.40
2022-10-02T22:04:47.820Z,68.90
2022-10-02T22:09:46.965Z,139.90
2022-10-02T22:14:46.149Z,99.20
2022-10-02T22:19:45.316Z,243.80
2022-10-02T22:24:44.499Z,232.40
2022-10-02T22:29:44.684Z,197.50
2022-10-02T22:34:42.871Z,99.70
2022-10-02T22:39:42.024Z,59.40
2022-10-02T22:44:43.221Z,41.80
2022-10-02T22:49:40.391Z,37.80
2022-10-02T22:54:39.578Z,75.40
2022-10-02T22:59:38.744Z,113.20
2022-10-02T23:04:37.970Z,52.10
2022-10-02T23:09:37.167Z,52.80
2022-10-02T23:14:36.346Z,51.70
2022-10-02T23:19:37.619Z,34.50
2022-10-02T23:24:34.793Z,93.10
2022-10-02T23:29:34.018Z,113.10
2022-10-02T23:34:34.199Z,76.00
2022-10-02T23:39:33.371Z,105.50
2022-10-02T23:44:32.669Z,99.60
2022-10-02T23:49:32.000Z,67.30
2022-10-02T23:54:30.306Z,53.20
2022-10-02T23:59:29.634Z,45.40
